Time;durP1;ratioP1;P1;durP2;ratioP2;P2;SDS_P1;SDS_P2;PMS_P1;PMS_P2;Temp;Humidity;BMP_temperature;BMP_pressure;BME280_temperature;BME280_humidity;BME280_pressure;Samples;Min_cycle;Max_cycle;Signal;HPM_P1;HPM_P2
2023/10/15 00:00:18;;;;;;;14.35;3.47;;;8.30;99.90;;;;;;4991300;28;20089;-54
2023/10/15 00:02:48;;;;;;;15.82;3.40;;;8.40;99.90;;;;;;4991294;28;20491;-54
2023/10/15 00:05:17;;;;;;;19.20;3.47;;;8.30;99.90;;;;;;4990781;28;20095;-54
2023/10/15 00:07:44;;;;;;;12.70;2.47;;;8.40;99.90;;;;;;4991059;28;20031;-54
2023/10/15 00:10:14;;;;;;;16.77;3.05;;;8.30;99.90;;;;;;4991038;28;20069;-54
2023/10/15 00:12:41;;;;;;;21.90;4.13;;;8.30;99.90;;;;;;4991077;28;20555;-55
2023/10/15 00:15:23;;;;;;;16.02;3.05;;;8.30;99.90;;;;;;4990660;28;20061;-52
2023/10/15 00:17:53;;;;;;;13.68;3.95;;;8.30;99.90;;;;;;4991075;28;20483;-52
2023/10/15 00:20:20;;;;;;;16.98;3.45;;;8.30;99.90;;;;;;4990824;28;20491;-53
2023/10/15 00:22:47;;;;;;;14.38;2.70;;;8.30;99.90;;;;;;4990611;28;20030;-52
2023/10/15 00:25:14;;;;;;;16.83;3.72;;;8.30;99.90;;;;;;4990418;28;20472;-54
2023/10/15 00:27:54;;;;;;;14.10;3.20;;;8.30;99.90;;;;;;4990850;28;20022;-54
2023/10/15 00:30:21;;;;;;;13.27;2.90;;;8.30;99.90;;;;;;4990700;28;20581;-54
2023/10/15 00:32:47;;;;;;;14.88;3.53;;;8.20;99.90;;;;;;4990770;28;20057;-54
2023/10/15 00:35:13;;;;;;;20.25;3.10;;;8.30;99.90;;;;;;4972707;28;20034;-54
2023/10/15 00:37:56;;;;;;;15.82;3.45;;;8.20;99.90;;;;;;4990655;28;20034;-54
2023/10/15 00:40:25;;;;;;;18.15;3.22;;;8.20;99.90;;;;;;4990610;28;20391;-54
2023/10/15 00:42:51;;;;;;;13.35;3.20;;;8.20;99.90;;;;;;4990697;28;20088;-54
2023/10/15 00:45:20;;;;;;;17.33;3.17;;;8.10;99.90;;;;;;4990063;28;20034;-55
2023/10/15 00:48:07;;;;;;;13.50;3.10;;;8.10;99.90;;;;;;4990486;28;20029;-54
2023/10/15 00:50:44;;;;;;;13.00;3.13;;;8.10;99.90;;;;;;4973197;28;20029;-54
2023/10/15 00:53:21;;;;;;;15.90;2.78;;;8.10;99.90;;;;;;4990149;28;20026;-53
2023/10/15 00:55:49;;;;;;;14.93;4.30;;;8.10;99.90;;;;;;4972628;28;20372;-53
2023/10/15 00:58:21;;;;;;;13.48;3.72;;;8.10;99.90;;;;;;4990099;28;20046;-53
2023/10/15 01:03:19;;;;;;;21.08;2.90;;;8.00;99.90;;;;;;4990085;28;20042;-53
2023/10/15 01:05:52;;;;;;;16.20;2.70;;;8.00;99.90;;;;;;4990293;28;20121;-54
2023/10/15 01:08:18;;;;;;;13.63;3.03;;;8.00;99.90;;;;;;4972666;28;20034;-53
2023/10/15 01:10:43;;;;;;;14.55;3.03;;;8.00;99.90;;;;;;4990042;28;20018;-53
2023/10/15 01:13:30;;;;;;;14.10;3.15;;;8.00;99.90;;;;;;4990025;28;20022;-53
2023/10/15 01:16:02;;;;;;;14.60;3.28;;;8.00;99.90;;;;;;4989812;28;20093;-53
2023/10/15 01:18:27;;;;;;;18.73;3.10;;;7.90;99.90;;;;;;4990020;28;20018;-53
2023/10/15 01:20:53;;;;;;;15.55;3.17;;;7.90;99.90;;;;;;4989902;28;20398;-52
2023/10/15 01:23:44;;;;;;;12.40;2.97;;;7.90;99.90;;;;;;4989818;28;20061;-53
2023/10/15 01:26:15;;;;;;;15.57;3.45;;;7.90;99.90;;;;;;4989630;28;20554;-53
2023/10/15 01:28:43;;;;;;;11.85;2.85;;;7.90;99.90;;;;;;4990286;28;20034;-53
2023/10/15 01:31:14;;;;;;;12.27;2.63;;;7.90;99.90;;;;;;4989724;28;20051;-53
2023/10/15 01:33:46;;;;;;;21.13;4.45;;;7.90;99.90;;;;;;4989626;28;20022;-53
2023/10/15 01:36:27;;;;;;;20.73;3.72;;;8.00;99.90;;;;;;4989469;28;20515;-53
2023/10/15 01:38:55;;;;;;;15.23;3.22;;;7.90;99.90;;;;;;4990287;28;20652;-53
2023/10/15 01:41:25;;;;;;;11.20;3.50;;;7.90;99.90;;;;;;4990037;28;20058;-53
2023/10/15 01:43:53;;;;;;;15.40;2.80;;;7.90;99.90;;;;;;4989706;28;20092;-53
2023/10/15 01:49:07;;;;;;;13.23;3.38;;;7.90;99.90;;;;;;4989691;28;20040;-53
2023/10/15 01:51:39;;;;;;;13.00;2.75;;;7.90;99.90;;;;;;4989765;28;20369;-52
2023/10/15 01:54:09;;;;;;;16.45;4.00;;;7.90;99.90;;;;;;4973856;28;20498;-53
2023/10/15 01:56:36;;;;;;;11.00;3.22;;;7.90;99.90;;;;;;4993082;28;20093;-55
2023/10/15 01:59:07;;;;;;;10.93;2.63;;;7.90;99.90;;;;;;4993338;28;20265;-55
2023/10/15 02:01:37;;;;;;;16.58;3.40;;;7.90;99.90;;;;;;4993631;28;20111;-54
2023/10/15 02:04:03;;;;;;;21.98;3.65;;;7.90;99.90;;;;;;4993113;28;20022;-55
2023/10/15 02:06:35;;;;;;;12.93;3.60;;;7.80;99.90;;;;;;4975817;28;20081;-55
2023/10/15 02:09:07;;;;;;;18.05;3.22;;;7.80;99.90;;;;;;4987686;28;20497;-51
2023/10/15 02:11:37;;;;;;;25.33;3.25;;;7.80;99.90;;;;;;4987414;28;20038;-55
2023/10/15 02:14:07;;;;;;;12.20;3.08;;;7.80;99.90;;;;;;4993089;28;20077;-52
2023/10/15 02:16:37;;;;;;;15.80;3.03;;;7.80;99.90;;;;;;4993048;28;20037;-54
2023/10/15 02:19:07;;;;;;;10.93;2.38;;;7.80;99.90;;;;;;4975620;28;20118;-54
2023/10/15 02:21:34;;;;;;;11.77;2.83;;;7.80;99.90;;;;;;4993370;28;20056;-54
2023/10/15 02:24:08;;;;;;;19.90;3.72;;;7.80;99.90;;;;;;4975424;28;20033;-52
2023/10/15 02:26:35;;;;;;;15.05;3.60;;;7.80;99.90;;;;;;4992964;28;20099;-53
2023/10/15 02:29:07;;;;;;;18.45;3.03;;;7.80;99.90;;;;;;4992853;28;20022;-54
2023/10/15 02:31:41;;;;;;;18.15;3.33;;;7.80;99.90;;;;;;4993023;28;20030;-53
2023/10/15 02:34:14;;;;;;;22.30;3.10;;;7.80;99.90;;;;;;4994471;28;20026;-54
2023/10/15 02:36:41;;;;;;;18.55;3.47;;;7.80;99.90;;;;;;4991082;28;20117;-52
2023/10/15 02:39:07;;;;;;;15.68;2.97;;;7.80;99.90;;;;;;4977095;28;20022;-52
2023/10/15 02:41:40;;;;;;;11.50;2.78;;;7.80;99.90;;;;;;4992893;28;20025;-54
2023/10/15 02:44:12;;;;;;;16.02;3.67;;;7.80;99.90;;;;;;4992543;28;20018;-53
2023/10/15 02:46:47;;;;;;;25.33;3.33;;;7.80;99.90;;;;;;4975307;28;20030;-53
2023/10/15 02:49:15;;;;;;;14.60;2.80;;;7.80;99.90;;;;;;4990520;28;20077;-54
2023/10/15 02:51:42;;;;;;;17.02;3.95;;;7.80;99.90;;;;;;4984977;28;20392;-54
2023/10/15 02:54:50;;;;;;;19.55;3.38;;;7.80;99.90;;;;;;4986100;28;20065;-54
2023/10/15 02:56:57;;;;;;;11.52;2.72;;;7.80;99.90;;;;;;4978371;28;20404;-54
2023/10/15 02:59:29;;;;;;;9.77;2.55;;;7.80;99.90;;;;;;4985459;28;20027;-55
2023/10/15 03:01:56;;;;;;;13.35;3.22;;;7.90;99.90;;;;;;4985036;28;20078;-55
2023/10/15 03:04:37;;;;;;;19.48;3.55;;;7.80;99.90;;;;;;4985323;28;20454;-54
2023/10/15 03:07:18;;;;;;;16.63;3.08;;;7.80;99.90;;;;;;4985654;28;20042;-54
2023/10/15 03:09:44;;;;;;;15.98;3.10;;;7.80;99.90;;;;;;4987324;28;20030;-54
2023/10/15 03:12:13;;;;;;;15.88;3.05;;;7.80;99.90;;;;;;4992598;28;20415;-54
2023/10/15 03:14:41;;;;;;;13.02;2.63;;;7.80;99.90;;;;;;4991915;28;20029;-54
2023/10/15 03:17:13;;;;;;;21.48;3.97;;;7.80;99.90;;;;;;4974536;28;20037;-55
2023/10/15 03:19:38;;;;;;;9.63;2.80;;;7.70;99.90;;;;;;4992261;28;20459;-54
2023/10/15 03:22:08;;;;;;;15.23;3.53;;;7.70;99.90;;;;;;4991899;28;20158;-54
2023/10/15 03:24:34;;;;;;;21.63;3.55;;;7.70;99.90;;;;;;4991939;28;20031;-55
2023/10/15 03:27:00;;;;;;;15.10;3.05;;;7.70;99.90;;;;;;4992075;28;20038;-54
2023/10/15 03:29:26;;;;;;;18.05;3.15;;;7.70;99.90;;;;;;4974508;28;20022;-54
2023/10/15 03:32:04;;;;;;;12.70;3.50;;;7.60;99.90;;;;;;4989412;28;20113;-54
2023/10/15 03:34:35;;;;;;;16.45;3.38;;;7.60;99.90;;;;;;4992068;28;20361;-54
2023/10/15 03:37:01;;;;;;;9.82;2.97;;;7.60;99.90;;;;;;4991962;28;20054;-55
2023/10/15 03:39:54;;;;;;;13.73;3.65;;;7.60;99.90;;;;;;4991812;28;20455;-54
2023/10/15 03:44:44;;;;;;;13.23;3.30;;;7.60;99.90;;;;;;4991550;28;20026;-54
2023/10/15 03:47:14;;;;;;;16.92;3.15;;;7.50;99.90;;;;;;4991610;28;20018;-54
2023/10/15 03:49:39;;;;;;;18.17;2.97;;;7.50;99.90;;;;;;4991523;28;20030;-54
2023/10/15 03:52:09;;;;;;;24.55;4.35;;;7.50;99.90;;;;;;4991631;28;20042;-54
2023/10/15 03:54:37;;;;;;;13.93;3.55;;;7.50;99.90;;;;;;4991207;28;20068;-54
2023/10/15 03:57:03;;;;;;;20.48;4.78;;;7.50;99.90;;;;;;4991213;28;20026;-54
2023/10/15 03:59:28;;;;;;;10.82;2.92;;;7.60;99.90;;;;;;4990424;28;20018;-54
2023/10/15 04:01:56;;;;;;;13.05;2.67;;;7.50;99.90;;;;;;4973206;28;20411;-55
2023/10/15 04:04:22;;;;;;;12.88;3.60;;;7.50;99.90;;;;;;4990400;28;20069;-55
2023/10/15 04:06:52;;;;;;;16.35;3.05;;;7.50;99.90;;;;;;4972615;28;20135;-54
2023/10/15 04:09:25;;;;;;;17.52;4.20;;;7.50;99.90;;;;;;4990321;28;20435;-54
2023/10/15 04:11:51;;;;;;;9.93;2.78;;;7.50;99.90;;;;;;4990228;28;20092;-54
2023/10/15 04:14:18;;;;;;;11.73;2.92;;;7.50;99.90;;;;;;4989738;28;20030;-54
2023/10/15 04:16:44;;;;;;;13.38;2.90;;;7.50;99.90;;;;;;4988647;28;20042;-54
2023/10/15 04:19:10;;;;;;;13.65;2.95;;;7.50;99.90;;;;;;4987221;28;20027;-55
2023/10/15 04:21:40;;;;;;;12.88;2.63;;;7.50;99.90;;;;;;4982623;28;20108;-54
2023/10/15 04:24:09;;;;;;;10.57;2.83;;;7.50;99.90;;;;;;4984893;28;20026;-54
2023/10/15 04:26:42;;;;;;;9.30;2.40;;;7.50;99.90;;;;;;4972075;28;20034;-54
2023/10/15 04:29:18;;;;;;;12.95;2.90;;;7.50;99.90;;;;;;4987155;28;20093;-54
2023/10/15 04:32:00;;;;;;;10.40;2.28;;;7.60;99.90;;;;;;4980771;28;20516;-54
2023/10/15 04:34:29;;;;;;;10.07;2.80;;;7.60;99.90;;;;;;4983553;28;20081;-54
2023/10/15 04:36:57;;;;;;;7.47;2.25;;;7.60;99.90;;;;;;4987494;28;20026;-53
2023/10/15 04:39:23;;;;;;;12.40;2.45;;;7.60;99.90;;;;;;4988129;28;20050;-54
2023/10/15 04:41:55;;;;;;;12.60;2.40;;;7.60;99.90;;;;;;4986242;28;20080;-55
2023/10/15 04:44:31;;;;;;;12.10;2.38;;;7.60;99.90;;;;;;4988125;28;20105;-56
2023/10/15 04:47:05;;;;;;;12.70;2.28;;;7.60;99.90;;;;;;4989286;28;20395;-55
2023/10/15 04:49:32;;;;;;;7.13;2.05;;;7.70;99.90;;;;;;4969725;28;20065;-53
2023/10/15 04:51:58;;;;;;;11.35;2.33;;;7.70;99.90;;;;;;4985741;28;20030;-55
2023/10/15 04:54:25;;;;;;;7.15;2.28;;;7.60;99.90;;;;;;4985503;28;20034;-60
2023/10/15 04:56:52;;;;;;;7.70;2.13;;;7.70;99.90;;;;;;4987211;28;20360;-55
2023/10/15 04:59:17;;;;;;;7.10;1.70;;;7.70;99.90;;;;;;4937635;28;1022645;-55
2023/10/15 05:01:43;;;;;;;7.93;2.13;;;7.70;99.90;;;;;;4989315;28;20274;-55
2023/10/15 05:04:09;;;;;;;10.27;1.95;;;7.60;99.90;;;;;;4989894;28;20476;-55
2023/10/15 05:06:35;;;;;;;13.48;2.10;;;7.70;99.90;;;;;;4988541;28;20017;-55
2023/10/15 05:09:00;;;;;;;7.13;2.10;;;7.60;99.90;;;;;;4990040;28;20037;-54
2023/10/15 05:11:28;;;;;;;8.15;1.92;;;7.60;99.90;;;;;;4989603;28;20057;-55
2023/10/15 05:13:53;;;;;;;8.07;1.75;;;7.60;99.90;;;;;;4989798;28;20030;-55
2023/10/15 05:16:19;;;;;;;7.32;1.73;;;7.60;99.90;;;;;;4989352;28;20538;-55
2023/10/15 05:18:47;;;;;;;8.95;2.53;;;7.60;99.90;;;;;;4985936;28;20459;-54
2023/10/15 05:21:13;;;;;;;13.55;2.03;;;7.60;99.90;;;;;;4988426;28;20034;-55
2023/10/15 05:23:39;;;;;;;11.95;2.70;;;7.50;99.90;;;;;;4985201;28;20022;-55
2023/10/15 05:26:05;;;;;;;13.73;2.25;;;7.60;99.90;;;;;;4982822;28;20535;-55
2023/10/15 05:28:31;;;;;;;7.32;1.88;;;7.50;99.90;;;;;;4984563;28;20158;-55
2023/10/15 05:31:00;;;;;;;8.23;2.15;;;7.50;99.90;;;;;;4981878;28;20042;-55
2023/10/15 05:33:26;;;;;;;10.75;2.10;;;7.60;99.90;;;;;;4967614;28;20026;-55
2023/10/15 05:35:52;;;;;;;10.23;2.10;;;7.50;99.90;;;;;;4989966;28;20693;-55
2023/10/15 05:38:17;;;;;;;5.28;1.80;;;7.50;99.90;;;;;;4989949;28;20492;-54
2023/10/15 05:40:46;;;;;;;8.05;2.13;;;7.50;99.90;;;;;;4989288;28;20080;-54
2023/10/15 05:43:12;;;;;;;10.25;1.63;;;7.50;99.90;;;;;;4989480;28;20052;-55
2023/10/15 05:45:37;;;;;;;6.38;1.50;;;7.50;99.90;;;;;;4989213;28;20034;-55
2023/10/15 05:48:03;;;;;;;13.73;1.75;;;7.50;99.90;;;;;;4989062;28;20523;-54
2023/10/15 05:50:29;;;;;;;16.98;2.17;;;7.40;99.90;;;;;;4989536;28;20320;-54
2023/10/15 05:52:55;;;;;;;8.93;2.35;;;7.50;99.90;;;;;;4989691;28;20038;-55
2023/10/15 05:55:20;;;;;;;5.10;1.80;;;7.50;99.90;;;;;;4989492;28;20450;-55
2023/10/15 05:57:47;;;;;;;7.15;1.45;;;7.40;99.90;;;;;;4989556;28;20114;-55
2023/10/15 06:00:19;;;;;;;5.80;1.40;;;7.40;99.90;;;;;;4989463;28;20038;-54
2023/10/15 06:02:50;;;;;;;6.10;1.45;;;7.40;99.90;;;;;;4989630;28;20069;-54
2023/10/15 06:05:16;;;;;;;4.85;1.85;;;7.40;99.90;;;;;;4989578;28;20042;-54
2023/10/15 06:07:42;;;;;;;4.32;1.60;;;7.40;99.90;;;;;;4990277;28;20214;-54
2023/10/15 06:10:09;;;;;;;4.57;1.50;;;7.40;99.90;;;;;;4972283;28;20166;-54
2023/10/15 06:12:35;;;;;;;3.20;1.60;;;7.40;99.90;;;;;;4989505;28;20395;-54
2023/10/15 06:15:01;;;;;;;3.20;1.48;;;7.40;99.90;;;;;;4989096;28;20581;-54
2023/10/15 06:17:26;;;;;;;5.70;1.33;;;7.40;99.90;;;;;;4989549;28;20038;-54
2023/10/15 06:19:52;;;;;;;5.15;1.30;;;7.40;99.90;;;;;;4989113;28;20070;-55
2023/10/15 06:22:18;;;;;;;12.48;3.35;;;7.50;99.90;;;;;;4971440;28;20030;-54
2023/10/15 06:24:46;;;;;;;5.63;1.73;;;7.40;99.90;;;;;;4971520;28;20110;-55
2023/10/15 06:27:13;;;;;;;3.65;1.60;;;7.40;99.90;;;;;;4989056;28;20575;-54
2023/10/15 06:29:38;;;;;;;3.38;1.13;;;7.50;99.90;;;;;;4987666;28;20136;-54
2023/10/15 06:32:04;;;;;;;3.42;1.25;;;7.40;99.90;;;;;;4987789;28;20031;-54
2023/10/15 06:34:30;;;;;;;4.65;1.42;;;7.50;99.90;;;;;;4971485;28;20038;-54
2023/10/15 06:36:55;;;;;;;4.75;1.55;;;7.50;99.90;;;;;;4989573;28;20487;-54
2023/10/15 06:39:21;;;;;;;7.35;1.42;;;7.50;99.90;;;;;;4989705;28;20030;-54
2023/10/15 06:41:47;;;;;;;7.90;1.40;;;7.50;99.90;;;;;;4992724;28;20014;-54
2023/10/15 06:44:13;;;;;;;5.20;1.08;;;7.50;99.90;;;;;;4992421;28;20033;-55
2023/10/15 06:46:38;;;;;;;4.90;1.27;;;7.50;99.90;;;;;;4991515;28;20026;-54
2023/10/15 06:49:04;;;;;;;4.47;1.20;;;7.60;99.90;;;;;;4987545;28;20026;-54
2023/10/15 06:51:30;;;;;;;3.58;1.58;;;7.60;99.90;;;;;;4992420;28;20080;-54
2023/10/15 06:53:55;;;;;;;6.68;1.75;;;7.60;99.90;;;;;;4992270;28;20034;-54
2023/10/15 06:56:21;;;;;;;3.47;0.95;;;7.60;99.90;;;;;;4992210;28;20056;-54
2023/10/15 06:58:47;;;;;;;4.97;1.42;;;7.60;99.90;;;;;;4992466;28;20033;-54
2023/10/15 07:01:13;;;;;;;4.25;1.45;;;7.60;99.90;;;;;;4992347;28;20451;-54
2023/10/15 07:03:38;;;;;;;3.72;1.20;;;7.70;99.90;;;;;;4992703;28;20049;-54
2023/10/15 07:06:04;;;;;;;4.28;1.23;;;7.70;99.90;;;;;;4991504;28;20404;-54
2023/10/15 07:08:30;;;;;;;6.20;1.20;;;7.70;99.90;;;;;;4975118;28;20030;-54
2023/10/15 07:10:59;;;;;;;3.63;1.20;;;7.80;99.90;;;;;;4974673;28;20015;-54
2023/10/15 07:13:24;;;;;;;3.88;1.23;;;7.80;99.90;;;;;;4992567;28;20092;-54
2023/10/15 07:15:50;;;;;;;3.33;1.20;;;7.80;99.90;;;;;;4991734;28;20026;-54
2023/10/15 07:18:15;;;;;;;5.18;1.30;;;7.80;99.90;;;;;;4974755;28;20106;-54
2023/10/15 07:20:41;;;;;;;4.85;1.20;;;7.90;99.90;;;;;;4988667;28;20114;-55
2023/10/15 07:23:07;;;;;;;7.25;1.42;;;7.90;99.90;;;;;;4990233;28;20117;-55
2023/10/15 07:25:33;;;;;;;5.03;1.33;;;7.90;99.90;;;;;;4991876;28;20087;-54
2023/10/15 07:28:00;;;;;;;7.57;1.50;;;8.00;99.90;;;;;;4992016;28;20023;-54
2023/10/15 07:30:26;;;;;;;2.55;0.93;;;8.10;99.90;;;;;;4974522;28;20033;-54
2023/10/15 07:32:58;;;;;;;2.92;1.33;;;8.30;99.90;;;;;;4992215;28;20026;-54
2023/10/15 07:35:26;;;;;;;9.95;1.10;;;8.50;99.90;;;;;;4991690;28;20300;-54
2023/10/15 07:37:52;;;;;;;3.78;1.00;;;8.60;99.90;;;;;;4992048;28;20053;-54
2023/10/15 07:40:25;;;;;;;3.83;1.50;;;8.60;99.90;;;;;;4974447;28;20069;-54
2023/10/15 07:42:53;;;;;;;3.90;1.20;;;8.60;99.90;;;;;;4991695;28;20368;-55
2023/10/15 07:45:22;;;;;;;7.60;1.10;;;8.50;99.90;;;;;;4991817;28;20085;-54
2023/10/15 07:47:48;;;;;;;3.22;1.25;;;8.50;99.90;;;;;;4991613;28;20097;-54
2023/10/15 07:50:18;;;;;;;6.32;1.08;;;8.40;99.90;;;;;;4991239;28;20105;-55
2023/10/15 07:52:44;;;;;;;5.50;1.35;;;8.40;99.90;;;;;;4973195;28;20247;-55
2023/10/15 07:55:13;;;;;;;5.07;0.93;;;8.40;99.90;;;;;;4991269;28;20023;-55
2023/10/15 07:57:39;;;;;;;7.20;1.40;;;8.50;99.90;;;;;;4991306;28;20030;-54
2023/10/15 08:00:07;;;;;;;5.95;1.13;;;8.40;99.90;;;;;;4991138;28;20030;-54
2023/10/15 08:02:35;;;;;;;3.42;1.20;;;8.50;99.90;;;;;;4991314;28;20026;-55
2023/10/15 08:05:00;;;;;;;3.80;0.95;;;8.50;99.90;;;;;;4991192;28;20049;-54
2023/10/15 08:07:28;;;;;;;2.33;1.10;;;8.60;99.90;;;;;;4991454;28;20058;-55
2023/10/15 08:09:53;;;;;;;6.28;1.40;;;8.80;99.90;;;;;;4990994;28;20462;-55
2023/10/15 08:12:20;;;;;;;2.78;1.17;;;8.90;99.90;;;;;;4990920;28;20023;-52
2023/10/15 08:14:46;;;;;;;5.07;1.10;;;8.90;99.90;;;;;;4973233;28;20487;-51
2023/10/15 08:17:15;;;;;;;4.95;1.08;;;9.00;99.90;;;;;;4991586;28;20030;-52
2023/10/15 08:19:41;;;;;;;5.80;1.42;;;9.00;99.90;;;;;;4973955;28;20153;-53
2023/10/15 08:22:06;;;;;;;3.53;0.90;;;9.30;99.90;;;;;;4989088;28;20105;-52
2023/10/15 08:24:33;;;;;;;3.20;1.48;;;9.40;99.90;;;;;;4989268;28;20050;-52
2023/10/15 08:26:59;;;;;;;3.05;1.27;;;9.40;99.90;;;;;;4989079;28;20034;-51
2023/10/15 08:29:24;;;;;;;2.63;1.00;;;9.30;99.90;;;;;;4989257;28;20368;-52
2023/10/15 08:31:51;;;;;;;3.60;1.00;;;9.30;99.90;;;;;;4989188;28;20036;-52
2023/10/15 08:34:17;;;;;;;4.80;1.27;;;9.20;99.90;;;;;;4988606;28;20030;-49
2023/10/15 08:36:42;;;;;;;3.00;1.15;;;9.20;99.90;;;;;;4994445;28;20064;-52
2023/10/15 08:39:08;;;;;;;6.97;1.15;;;9.30;99.90;;;;;;5007931;28;20034;-51
2023/10/15 08:41:40;;;;;;;7.70;1.30;;;9.50;99.90;;;;;;5009846;28;20044;-52
2023/10/15 08:44:08;;;;;;;9.10;1.65;;;9.60;99.90;;;;;;5009561;28;20022;-52
2023/10/15 08:46:35;;;;;;;4.63;1.10;;;9.60;99.90;;;;;;5009399;28;20017;-50
2023/10/15 08:49:06;;;;;;;4.43;1.30;;;9.70;99.90;;;;;;5009724;28;20446;-52
2023/10/15 08:51:34;;;;;;;;;;;9.70;99.90;;;;;;5010473;28;20080;-52
2023/10/15 08:54:07;;;;;;;3.70;1.20;;;9.70;99.90;;;;;;5009601;28;19952;-52
2023/10/15 08:56:34;;;;;;;3.10;1.05;;;9.70;99.90;;;;;;5009753;28;20047;-56
2023/10/15 08:59:00;;;;;;;5.47;1.00;;;9.60;99.90;;;;;;5009797;28;20034;-52
2023/10/15 09:01:26;;;;;;;4.75;1.10;;;9.80;99.90;;;;;;5009942;28;20025;-52
2023/10/15 09:03:52;;;;;;;2.70;1.25;;;10.50;99.90;;;;;;5009206;28;20025;-52
2023/10/15 09:06:20;;;;;;;1.85;1.02;;;11.30;99.90;;;;;;4996016;28;20507;-52
2023/10/15 09:08:46;;;;;;;2.47;0.95;;;11.90;99.90;;;;;;5002882;28;20101;-52
2023/10/15 09:11:12;;;;;;;4.03;1.08;;;11.90;99.90;;;;;;5007978;28;20068;-53
2023/10/15 09:13:38;;;;;;;2.70;1.00;;;12.30;99.90;;;;;;4995777;28;20014;-52
2023/10/15 09:16:05;;;;;;;3.38;1.25;;;13.00;99.90;;;;;;4989834;28;20503;-55
2023/10/15 09:18:35;;;;;;;2.17;1.10;;;13.60;99.50;;;;;;4990102;28;20077;-56
2023/10/15 09:21:05;;;;;;;2.03;1.20;;;14.00;98.10;;;;;;4989797;28;20026;-53
2023/10/15 09:23:35;;;;;;;2.60;1.30;;;13.60;97.40;;;;;;4989933;28;20023;-52
2023/10/15 09:26:01;;;;;;;1.55;1.00;;;13.00;99.20;;;;;;4989737;28;20065;-54
2023/10/15 09:28:30;;;;;;;2.95;1.08;;;12.60;99.40;;;;;;4990045;28;20106;-53
2023/10/15 09:31:07;;;;;;;3.22;1.10;;;12.00;99.90;;;;;;4990032;28;20480;-53
2023/10/15 09:33:33;;;;;;;1.65;1.20;;;12.20;99.90;;;;;;4990056;28;20518;-54
2023/10/15 09:35:59;;;;;;;3.17;0.88;;;12.50;99.90;;;;;;4989479;28;20098;-54
2023/10/15 09:38:25;;;;;;;2.35;0.90;;;12.20;99.90;;;;;;4989955;28;20125;-52
2023/10/15 09:40:55;;;;;;;2.33;0.82;;;11.60;99.90;;;;;;4972096;28;20031;-52
2023/10/15 09:43:37;;;;;;;3.20;0.98;;;11.50;99.90;;;;;;4989838;28;20026;-54
2023/10/15 09:46:03;;;;;;;2.83;0.90;;;11.30;99.90;;;;;;4971888;28;20081;-52
2023/10/15 09:48:29;;;;;;;1.05;0.82;;;11.20;99.90;;;;;;4989905;28;20018;-52
2023/10/15 09:50:59;;;;;;;2.08;0.85;;;11.00;99.90;;;;;;4989605;28;20027;-53
2023/10/15 09:53:28;;;;;;;4.05;1.40;;;10.80;99.90;;;;;;4972341;28;20022;-52
2023/10/15 09:55:57;;;;;;;5.07;2.10;;;10.70;99.90;;;;;;4989586;28;20019;-51
2023/10/15 09:58:24;;;;;;;3.05;1.20;;;10.60;99.90;;;;;;4989328;28;20038;-52
2023/10/15 10:01:09;;;;;;;2.20;0.98;;;10.50;99.90;;;;;;4989432;28;20061;-53
2023/10/15 10:03:57;;;;;;;1.65;0.50;;;10.50;99.90;;;;;;4989703;28;20029;-54
2023/10/15 10:06:50;;;;;;;2.85;0.80;;;10.20;99.90;;;;;;4989847;28;20081;-54
2023/10/15 10:09:30;;;;;;;1.23;0.70;;;9.90;99.90;;;;;;4989764;28;20319;-53
2023/10/15 10:12:33;;;;;;;1.10;0.70;;;9.80;99.90;;;;;;4989874;28;20531;-54
2023/10/15 10:15:11;;;;;;;3.90;0.88;;;11.30;99.90;;;;;;4973238;28;20553;-54
2023/10/15 10:17:38;;;;;;;1.88;0.80;;;13.30;99.90;;;;;;4989751;28;20030;-54
2023/10/15 10:20:11;;;;;;;1.63;0.70;;;14.50;99.60;;;;;;4992917;28;20505;-54
2023/10/15 10:22:38;;;;;;;1.92;0.85;;;14.70;97.90;;;;;;4992899;28;20027;-54
2023/10/15 10:25:06;;;;;;;1.73;0.88;;;16.20;96.10;;;;;;4992905;28;20061;-54
2023/10/15 10:27:41;;;;;;;1.45;0.80;;;17.20;92.10;;;;;;4993252;28;20105;-54
2023/10/15 10:30:26;;;;;;;2.78;0.80;;;17.90;88.50;;;;;;4992892;28;20696;-54
2023/10/15 10:32:52;;;;;;;2.58;1.20;;;18.40;85.20;;;;;;4992957;28;20023;-54
2023/10/15 10:35:18;;;;;;;3.05;1.08;;;18.50;83.10;;;;;;4992753;28;20033;-55
2023/10/15 10:38:10;;;;;;;1.40;0.80;;;18.70;82.10;;;;;;4992886;28;20033;-53
2023/10/15 10:40:52;;;;;;;3.13;0.90;;;19.00;81.00;;;;;;4992760;28;20045;-56
2023/10/15 10:43:24;;;;;;;2.17;0.80;;;19.10;80.90;;;;;;4975466;28;20040;-55
2023/10/15 10:45:53;;;;;;;1.23;0.85;;;19.20;81.10;;;;;;4975380;28;20037;-54
2023/10/15 10:48:39;;;;;;;2.47;1.02;;;19.70;79.80;;;;;;4993038;28;20025;-55
2023/10/15 10:51:07;;;;;;;2.20;0.80;;;20.50;76.60;;;;;;4990852;28;20126;-55
2023/10/15 10:53:33;;;;;;;4.13;0.90;;;19.40;78.30;;;;;;4992829;28;20329;-54
2023/10/15 10:56:03;;;;;;;0.85;0.70;;;19.20;79.10;;;;;;4992386;28;20232;-54
2023/10/15 10:58:29;;;;;;;1.88;0.80;;;18.50;80.80;;;;;;4975040;28;20077;-54
2023/10/15 11:00:56;;;;;;;1.55;0.90;;;18.10;80.60;;;;;;4992486;28;20026;-53
2023/10/15 11:03:23;;;;;;;4.57;0.95;;;17.90;81.10;;;;;;4992409;28;20038;-54
2023/10/15 11:05:49;;;;;;;3.33;1.00;;;17.40;80.30;;;;;;4992275;28;20041;-54
2023/10/15 11:08:21;;;;;;;1.75;0.80;;;16.50;83.90;;;;;;4992629;28;20500;-54
2023/10/15 11:10:47;;;;;;;2.28;0.75;;;15.40;85.10;;;;;;4992884;28;20026;-54
2023/10/15 11:13:15;;;;;;;1.08;0.55;;;15.30;89.80;;;;;;4992331;28;20026;-54
2023/10/15 11:15:42;;;;;;;1.63;0.85;;;16.00;86.70;;;;;;4974580;28;20153;-52
2023/10/15 11:18:08;;;;;;;1.20;0.60;;;16.40;83.50;;;;;;4992084;28;20054;-52
2023/10/15 11:20:35;;;;;;;1.35;0.75;;;17.00;86.30;;;;;;4991904;28;20023;-54
2023/10/15 11:23:06;;;;;;;3.30;1.10;;;17.90;84.90;;;;;;4991798;28;20027;-52
2023/10/15 11:25:34;;;;;;;2.30;0.90;;;18.80;82.70;;;;;;4991471;28;20027;-52
2023/10/15 11:28:07;;;;;;;3.83;1.10;;;19.20;78.10;;;;;;4974642;28;20030;-52
2023/10/15 11:30:33;;;;;;;2.88;1.20;;;19.10;78.30;;;;;;4991827;28;20030;-52
2023/10/15 11:33:00;;;;;;;2.42;0.98;;;19.00;77.30;;;;;;4974494;28;20023;-52
2023/10/15 11:35:32;;;;;;;1.42;0.77;;;18.80;79.50;;;;;;4991591;28;20023;-52
2023/10/15 11:37:58;;;;;;;2.70;0.75;;;18.20;78.10;;;;;;4991742;28;20102;-54
2023/10/15 11:40:25;;;;;;;1.30;0.68;;;17.40;79.30;;;;;;4991749;28;20064;-54
2023/10/15 11:42:51;;;;;;;7.72;1.05;;;16.50;83.50;;;;;;4991711;28;20062;-53
2023/10/15 11:45:31;;;;;;;2.85;0.88;;;15.30;85.40;;;;;;4991302;28;20030;-53
2023/10/15 11:47:58;;;;;;;1.33;0.80;;;14.60;87.90;;;;;;4991956;28;20033;-52
2023/10/15 11:50:24;;;;;;;1.65;0.68;;;15.20;90.10;;;;;;4991550;28;20509;-54
2023/10/15 11:52:50;;;;;;;2.13;0.80;;;16.30;84.90;;;;;;4991597;28;20041;-54
2023/10/15 11:55:19;;;;;;;1.25;0.70;;;16.70;85.40;;;;;;4991119;28;20412;-54
2023/10/15 11:57:52;;;;;;;1.17;0.70;;;17.10;83.40;;;;;;4991498;28;20042;-55
2023/10/15 12:00:33;;;;;;;1.02;0.63;;;17.50;80.60;;;;;;4991569;28;20042;-55
2023/10/15 12:02:59;;;;;;;1.88;0.90;;;17.70;78.80;;;;;;4991265;28;20100;-55
2023/10/15 12:05:34;;;;;;;1.95;0.80;;;17.80;82.00;;;;;;4973471;28;20113;-55
2023/10/15 12:08:05;;;;;;;0.73;0.50;;;17.70;82.20;;;;;;4991653;28;20026;-55
2023/10/15 12:10:31;;;;;;;3.03;0.80;;;18.10;82.80;;;;;;4991280;28;20038;-54
2023/10/15 12:12:58;;;;;;;1.05;0.90;;;17.50;79.80;;;;;;4991159;28;20029;-54
2023/10/15 12:15:24;;;;;;;1.15;0.50;;;17.10;81.40;;;;;;4974010;28;20023;-54
2023/10/15 12:17:50;;;;;;;1.08;0.60;;;16.60;82.30;;;;;;4991479;28;20104;-54
2023/10/15 12:20:18;;;;;;;0.80;0.60;;;15.90;84.80;;;;;;4991205;28;20034;-54
2023/10/15 12:22:44;;;;;;;1.20;0.52;;;15.60;86.60;;;;;;4990960;28;20022;-54
2023/10/15 12:25:09;;;;;;;1.88;0.70;;;15.40;87.00;;;;;;4990575;28;20390;-54
2023/10/15 12:27:36;;;;;;;1.10;0.70;;;15.70;89.10;;;;;;4990985;28;20041;-54
2023/10/15 12:30:05;;;;;;;1.33;0.68;;;15.80;87.70;;;;;;4990956;28;20030;-54
2023/10/15 12:32:31;;;;;;;2.83;0.75;;;16.00;88.00;;;;;;4990874;28;20031;-54
2023/10/15 12:34:57;;;;;;;2.28;0.98;;;15.70;84.40;;;;;;4990412;28;20026;-53
2023/10/15 12:37:23;;;;;;;3.13;0.75;;;15.50;87.60;;;;;;4972862;28;20030;-54
2023/10/15 12:39:51;;;;;;;2.40;0.95;;;15.40;87.10;;;;;;4973230;28;20033;-53
2023/10/15 12:42:18;;;;;;;1.92;0.68;;;14.90;88.60;;;;;;4990339;28;20059;-53
2023/10/15 12:44:46;;;;;;;2.17;1.10;;;14.50;88.10;;;;;;4990475;28;20034;-52
2023/10/15 12:47:12;;;;;;;3.67;1.02;;;14.40;87.10;;;;;;4972834;28;20026;-53
2023/10/15 12:49:38;;;;;;;1.63;1.15;;;13.80;88.20;;;;;;4990465;28;20027;-53
2023/10/15 12:52:03;;;;;;;2.88;1.10;;;13.70;88.80;;;;;;4990576;28;20026;-52
2023/10/15 12:54:30;;;;;;;1.02;0.50;;;13.60;89.20;;;;;;4973085;28;20057;-53
2023/10/15 12:56:56;;;;;;;3.35;1.20;;;13.20;90.10;;;;;;4990511;28;20018;-52
2023/10/15 12:59:22;;;;;;;1.92;0.80;;;12.50;90.80;;;;;;4990373;28;20038;-53
2023/10/15 13:01:48;;;;;;;5.65;1.60;;;12.20;91.80;;;;;;4990330;28;20061;-53
2023/10/15 13:04:14;;;;;;;5.30;0.90;;;11.90;92.30;;;;;;4972614;28;20093;-53
2023/10/15 13:06:41;;;;;;;5.68;1.13;;;11.80;92.50;;;;;;4990224;28;20551;-53